ENVA

Trondheim , Værnes Airport

Trondheim, Norway
METAR ENVA 212020Z 09003KT 9999 SCT038 BKN050 M08/M09 Q1011 NOSIG RMK WIND 670FT 17004KT
Observed Flight Rules
Jan-21 @ 20:20 UTC (30 minutes ago) Visual Flight Rules
Wind Visibility Clouds
90° at 3 knots 10,000+ meters
  • Scattered at 3,800' AGL
  • Broken at 5,000' AGL
Temperatures Readings
Current -8°C / 18°F
Dewpoint -9°C / 16°F
Humidity 93%
Altimeter 29.85" Hg
Pressure 1010.92 hPa
Elevation 17
METAR ENVA 212020Z 09003KT 9999 SCT038 BKN050 M08/M09 Q1011 NOSIG RMK WIND 670FT 17004KT
Observed Flight Rules
Jan-21 @ 20:20 UTC
(30 minutes ago)
VFR
Wind Visibility
90° at 3 knots 10,000+ meters
Clouds
  • Scattered at 3,800' AGL
  • Broken at 5,000' AGL
Temperature Dewpoint
-8°C / 18°F -9°C / 16°F
Humidity Altimeter Pressure
93% 29.85" Hg 1010.92 hPa